Nearby METAR Reports

 

KHIF - Hill Afb/Ogden, Utah, USA
Distance from station: ENE 6mi, 9km
Updated: Sat, 23-Sep-2017 3:18pm MDT
Overcast
Overcast
 Wind from NNW
Wind: NNW 10 mph , 17 km/h
Temperature: 52°F , 11°C
Dew Point: 34°F , 1°C
Humidity: 50%
Barometer: 29.92 inHg , 1013.2 hPa
Clouds: Overcast
Visibility: 10 miles , 16 km
Cloud details: Mostly cloudy 4200 ft
Mostly cloudy 5000 ft
Overcast 7500 ft
2017/09/23 21:18 KHIF 232118Z 33009KT 10SM BKN042 BKN050 OVC075 11/01 A2992 RMK AO2A SLP114
KOGD - Ogden, Utah, USA
Distance from station: NNE 9mi, 14km
Updated: Sat, 23-Sep-2017 2:53pm MDT
Overcast
Overcast
 Wind from WNW
Wind: WNW 8 mph , 13 km/h
Temperature: 52°F , 11°C
Dew Point: 36°F , 2°C
Humidity: 54%
Barometer: 29.93 inHg , 1013.5 hPa
Clouds: Overcast
Visibility: 10 miles , 16 km
Cloud details: Overcast 5500 ft
2017/09/23 20:53 KOGD 232053Z 30007KT 10SM OVC055 11/02 A2993 RMK AO2 SLP119 T01110017 56006
 
KSLC - Salt Lake City, Utah, USA
Distance from station: SSE 21mi, 34km
Updated: Sat, 23-Sep-2017 2:54pm MDT
Mostly cloudy
Mostly cloudy
 Wind from NW
Wind: NW 13 mph , 20 km/h
Temperature: 55°F , 13°C
Dew Point: 37°F , 3°C
Humidity: 51%
Barometer: 29.92 inHg , 1013.2 hPa
Clouds: Mostly cloudy
Visibility: 10 miles , 16 km
Cloud details: Few Clouds 3800 ft
Mostly cloudy 5500 ft
Mostly cloudy 8000 ft
2017/09/23 20:54 KSLC 232054Z 32011KT 10SM FEW038 BKN055 BKN080 13/03 A2992 RMK AO2 SLP112 T01330033 56010
KLGU - Logan, Utah, USA
Distance from station: NNE 50mi, 80km
Updated: Sat, 23-Sep-2017 2:51pm MDT
Overcast
Overcast
 Wind from calm
Wind: Calm
Temperature: 52°F , 11°C
Dew Point: 36°F , 2°C
Humidity: 54%
Barometer: 29.95 inHg , 1014.2 hPa
Clouds: Overcast
Visibility: 10 miles , 16 km
Cloud details: Mostly cloudy 6500 ft
Overcast 8500 ft
2017/09/23 20:51 KLGU 232051Z AUTO 00000KT 10SM BKN065 OVC085 11/02 A2995 RMK AO2 SLP131 T01110022 56015 $
 
K36U - Heber/Russ Mcdon, Utah, USA
Distance from station: SE 53mi, 85km
Updated: Sat, 23-Sep-2017 3:35pm MDT
Overcast
Overcast
 Wind from N
Wind: N 9 mph , 15 km/h
Temperature: 48°F , 9°C
Wind Chill: 44°F , 7°C
Dew Point: 32°F , 0°C
Humidity: 54%
Barometer: 29.89 inHg , 1012.2 hPa
Clouds: Overcast
Visibility: 10 miles , 16 km
Cloud details: Overcast 3600 ft
2017/09/23 21:35 K36U 232135Z AUTO 01008KT 10SM OVC036 09/00 A2989 RMK AO2
KEVW - Evanston, Wyoming, USA
Distance from station: ENE 55mi, 89km
Updated: Sat, 23-Sep-2017 2:53pm MDT
Overcast
Overcast
 Wind from N
Wind: N 10 mph , 17 km/h
Temperature: 45°F , 7°C
Wind Chill: 40°F , 4°C
Dew Point: 36°F , 2°C
Humidity: 71%
Barometer: 29.94 inHg , 1013.9 hPa
Clouds: Overcast
Visibility: 10 miles , 16 km
Cloud details: Few Clouds 2100 ft
Overcast 3000 ft
2017/09/23 20:53 KEVW 232053Z AUTO 01009KT 10SM FEW021 OVC030 07/02 A2994 RMK AO2 SLP112 T00670017 56005
 
KPVU - Provo Muni, Utah, USA
Distance from station: SSE 62mi, 100km
Updated: Sat, 23-Sep-2017 2:56pm MDT
Overcast
Overcast
 Wind from NNW
Wind: NNW 12 mph , 19 km/h
Temperature: 54°F , 12°C
Dew Point: 37°F , 3°C
Humidity: 54%
Barometer: 29.91 inHg , 1012.9 hPa
Clouds: Overcast
Visibility: 10 miles , 16 km
Cloud details: Partly cloudy 4600 ft
Mostly cloudy 6000 ft
Overcast 11000 ft
2017/09/23 20:56 KPVU 232056Z 33010KT 10SM SCT046 BKN060 OVC110 12/03 A2991 RMK AO2 SLP117 T01170028 56010
KDPG - Dugway Prvg Grou, Utah, USA
Distance from station: SW 75mi, 121km
Updated: Thu, 21-Sep-2017 4:55pm MDT
NOT Current
Light rain, Overcast
Light rain, Overcast
 Wind from NW
Wind: NW 21 mph , 33 km/h, Gust: 29 mph , 46 km/h
Temperature: 43°F , 6°C
Wind Chill: 34°F , 1°C
Dew Point: 39°F , 4°C
Humidity: 87%
Barometer: 29.75 inHg , 1007.5 hPa
Summary: Light rain
Clouds: Overcast
Visibility: 6 miles , 10 km
Cloud details: Few Clouds 1000 ft
Partly cloudy 1600 ft
Mostly cloudy 2600 ft
Overcast 3200 ft
2017/09/21 22:55 KDPG 212255Z 32018G25KT 6SM -RA FEW010 SCT016 BKN026 OVC032 06/04 A2975 RMK PK WND 32029/2115 SLP051 P0000 T00630038 LAST
 
KENV - Wendover (aut), Utah, USA
Distance from station: WSW 105mi, 169km
Updated: Sat, 23-Sep-2017 2:56pm MDT
Overcast
Overcast
 Wind from WSW
Wind: WSW 5 mph , 7 km/h
Temperature: 54°F , 12°C
Dew Point: 28°F , -2°C
Humidity: 38%
Barometer: 29.97 inHg , 1014.9 hPa
Clouds: Overcast
Visibility: 10 miles , 16 km
Cloud details: Few Clouds 6000 ft
Overcast 8000 ft
2017/09/23 20:56 KENV 232056Z AUTO 25004KT 10SM FEW060 OVC080 12/M02 A2997 RMK AO2 SLP147 T01221022 57005
KPUC - Price, Utah, USA
Distance from station: SE 123mi, 197km
Updated: Sat, 23-Sep-2017 2:53pm MDT
Mostly cloudy
Mostly cloudy
 Wind from WSW
Wind: WSW 5 mph , 7 km/h
Temperature: 61°F , 16°C
Dew Point: 19°F , -7°C
Humidity: 20%
Barometer: 29.80 inHg , 1009.1 hPa
Clouds: Mostly cloudy
Visibility: 10 miles , 16 km
Cloud details: Mostly cloudy 10000 ft
2017/09/23 20:53 KPUC 232053Z AUTO 24004KT 10SM BKN100 16/M07 A2980 RMK AO2 SLP061 T01561067 58013
 
KPIH - Pocatello, Idaho, USA
Distance from station: NNW 130mi, 208km
Updated: Sat, 23-Sep-2017 2:53pm MDT
Partly cloudy
Partly cloudy
 Wind from NNW
Wind: NNW 8 mph , 13 km/h
Temperature: 52°F , 11°C
Dew Point: 37°F , 3°C
Humidity: 58%
Barometer: 30.01 inHg , 1016.3 hPa
Clouds: Partly cloudy
Visibility: 10 miles , 16 km
Cloud details: Partly cloudy 3400 ft
2017/09/23 20:53 KPIH 232053Z 33007KT 10SM SCT034 11/03 A3001 RMK AO2 SLP160 T01060028 56010
KBYI - Burley, Idaho, USA
Distance from station: NW 134mi, 216km
Updated: Sat, 23-Sep-2017 2:53pm MDT
Mostly cloudy
Mostly cloudy
 Wind from varies
Wind: varies 5 mph , 7 km/h
Temperature: 50°F , 10°C
Wind Chill: 48°F , 9°C
Dew Point: 36°F , 2°C
Humidity: 58%
Barometer: 30.00 inHg , 1015.9 hPa
Clouds: Mostly cloudy
Visibility: 10 miles , 16 km
Cloud details: Mostly cloudy 6000 ft
2017/09/23 20:53 KBYI 232053Z AUTO VRB04KT 10SM BKN060 10/02 A3000 RMK AO2 SLP160 T01000017 56010
 
KVEL - Vernal, Utah, USA
Distance from station: ESE 140mi, 226km
Updated: Sat, 23-Sep-2017 2:53pm MDT
Clear
Clear
 Wind from varies
Wind: varies 6 mph , 9 km/h
Temperature: 59°F , 15°C
Dew Point: 37°F , 3°C
Humidity: 45%
Barometer: 29.84 inHg , 1010.5 hPa
Clouds: Clear
Visibility: 10 miles , 16 km
2017/09/23 20:53 KVEL 232053Z AUTO VRB05KT 10SM CLR 15/03 A2984 RMK AO2 SLP072 T01500033 58016
KBPI - Big Piney, Wyoming, USA
Distance from station: NE 145mi, 234km
Updated: Sat, 23-Sep-2017 2:53pm MDT
Partly cloudy
Partly cloudy
 Wind from varies
Wind: varies 3 mph , 6 km/h
Temperature: 48°F , 9°C
Dew Point: 34°F , 1°C
Humidity: 58%
Barometer: 29.96 inHg , 1014.6 hPa
Clouds: Partly cloudy
Visibility: 10 miles , 16 km
Cloud details: Few Clouds 3300 ft
Partly cloudy 5500 ft
2017/09/23 20:53 KBPI 232053Z AUTO VRB03KT 10SM FEW033 SCT055 09/01 A2996 RMK AO2 SLP110 T00890006 56008